Argyle, Texas
Current Conditions -  °F | °C
As of 3:53 PM on Saturday 25 Oct 2014 (Local Time) from KDTO Reporting Station
Clear Clear  
Wind Chill: 88°   Ceiling: Unl
Heat Index: 88°   Visibility: 10mi
Dew Point: 61°   Wind: 6mph
Humidity: 40%   Direction: 190°S
Pressure: 30.05"   Gusts: NA
Location:  33.12°N, 97.18°W
Report Text: KDTO 252053Z 19005KT 10SM CLR 31/16 A3005 RMK AO2 SLP169 T03110161 56020
Loading
Personal Weather Stations






























Interactive Weather Map New forecast layout! Learn more

10-Day Weather Forecast

Advertisements
Track Severe Weather on mobile